Wetterdaten: Oktober 2010
Datum Temp. A. Feuchte A. Luftdruck Regen Wind Richtung Taupunkt Windchill Windben
01.10.2010 13,0 C 80 % 1012,9 hPa 3,2 l/m 0,0 km/h SO 9,3 C 13,0 C 0,0 km/h
02.10.2010 13,9 C 80 % 1012,0 hPa 0,7 l/m 1,0 km/h SO 10,3 C 13,9 C 0,6 km/h
03.10.2010 15,8 C 73 % 1006,0 hPa 0,0 l/m 1,3 km/h N-NO 10,6 C 15,8 C 0,7 km/h
04.10.2010 15,2 C 76 % 1000,9 hPa 0,0 l/m 0,5 km/h N-NO 10,9 C 15,2 C 0,3 km/h
05.10.2010 13,6 C 80 % 1008,5 hPa 0,7 l/m 5,0 km/h SO 10,2 C 12,6 C 2,8 km/h
06.10.2010 14,6 C 75 % 1012,1 hPa 0,0 l/m 0,5 km/h SO 9,8 C 14,6 C 0,3 km/h
07.10.2010 14,8 C 81 % 1016,8 hPa 0,0 l/m 0,5 km/h SO 11,5 C 14,8 C 0,3 km/h
08.10.2010 14,1 C 80 % 1016,2 hPa 0,0 l/m 0,8 km/h NO 10,4 C 14,1 C 0,4 km/h
09.10.2010 12,2 C 87 % 1013,4 hPa 0,0 l/m 0,0 km/h N-NO 10,1 C 12,2 C 0,0 km/h
10.10.2010 11,8 C 71 % 1007,0 hPa 0,0 l/m 0,0 km/h N-NO 6,6 C 11,8 C 0,0 km/h
11.10.2010 9,5 C 72 % 1007,7 hPa 0,0 l/m 0,8 km/h NO 3,9 C 9,5 C 0,4 km/h
12.10.2010 7,3 C 79 % 1010,8 hPa 0,0 l/m 0,0 km/h N-NO 3,5 C 7,3 C 0,0 km/h
13.10.2010 5,8 C 87 % 1011,7 hPa 0,0 l/m 0,5 km/h W-SW 3,8 C 5,8 C 0,3 km/h
14.10.2010 6,4 C 88 % 1013,2 hPa 0,0 l/m 0,5 km/h SO 4,6 C 6,4 C 0,3 km/h
15.10.2010 6,8 C 87 % 1011,7 hPa 0,0 l/m 0,0 km/h O-NO 4,7 C 6,8 C 0,0 km/h
16.10.2010 7,1 C 88 % 1009,4 hPa 6,4 l/m 3,9 km/h S-SO 5,2 C 6,0 C 2,2 km/h
17.10.2010 7,1 C 86 % 1015,0 hPa 1,8 l/m 6,2 km/h N-NO 4,9 C 5,0 C 3,4 km/h
18.10.2010 5,9 C 87 % 1018,9 hPa 0,4 l/m 0,3 km/h N-NO 3,9 C 5,9 C 0,2 km/h
19.10.2010 6,8 C 85 % 1009,8 hPa 0,4 l/m 15,2 km/h W-SW 4,5 C 1,8 C 8,5 km/h
20.10.2010 6,1 C 86 % 1014,3 hPa 6,1 l/m 2,0 km/h W-SW 3,9 C 6,1 C 1,1 km/h
21.10.2010 4,5 C 78 % 1023,5 hPa 0,0 l/m 3,3 km/h SO 0,4 C 4,3 C 1,8 km/h
22.10.2010 2,8 C 85 % 1019,5 hPa 0,0 l/m 0,0 km/h O-SO 0,5 C 2,8 C 0,0 km/h
23.10.2010 9,0 C 84 % 1010,3 hPa 3,6 l/m 5,0 km/h S-SW 6,4 C 7,6 C 2,8 km/h
24.10.2010 7,5 C 83 % 1010,5 hPa 2,1 l/m 14,3 km/h SW 4,8 C 3,6 C 7,9 km/h
25.10.2010 4,2 C 83 % 1019,7 hPa 0,4 l/m 0,0 km/h N-NO 1,6 C 4,2 C 0,0 km/h
26.10.2010 4,3 C 73 % 1026,2 hPa 0,0 l/m 0,6 km/h N-NO -0,6 C 4,3 C 0,3 km/h
27.10.2010 6,4 C 75 % 1023,6 hPa 0,0 l/m 0,0 km/h O-NO 1,7 C 6,4 C 0,0 km/h
28.10.2010 8,3 C 71 % 1020,9 hPa 0,0 l/m 0,0 km/h NO 3,1 C 8,3 C 0,0 km/h
29.10.2010 7,9 C 77 % 1009,2 hPa 0,0 l/m 0,5 km/h NO 3,4 C 7,9 C 0,3 km/h
30.10.2010 9,4 C 79 % 1004,7 hPa 0,0 l/m 1,3 km/h NO 5,6 C 9,4 C 0,7 km/h
31.10.2010 10,3 C 81 % 999,3 hPa 0,0 l/m 0,0 km/h SO 6,9 C 10,3 C 0,0 km/h
Min-Datum 22.10.10 11.10.10 04.10.10 11 Tage 01.10.10 - 22.10.10 19.10.10 01.10.10
Min-Zeit 07:30 16:30 16:30 - 01:30 - 07:30 08:30 01:30
Minimum -3,2 C 27 % 997,5 hPa - 0,0 km/h - -4,7 C -3,7 C 0,0 km/h
Max-Datum 03.10.10 03.10.10 26.10.10 16.10.10 19.10.10 - 03.10.10 03.10.10 19.10.10
Max-Zeit 17:30 07:30 10:30 18:30 15:30 - 15:30 17:30 15:30
Maximum 31,0 C 92 % 1027,2 hPa 6,4 l/m 57,0 km/h
W-SW
- 17,5 C 31,0 C 31,7 km/h
W-SW
Durchschnitt 9,1 C 80 % 1012,8 hPa #25,6 l/m 2,1 km/h SO 5,7 C 8,6 C 1,1 km/h

Durchschnitt Minimum Temp.4,2 C
Durchschnitt Maximum Temp.18,0 C